createdAt,value
2022-10-22T00:02:05.991Z,6.57
2022-10-22T00:04:51.728Z,6.58
2022-10-22T00:07:36.876Z,6.60
2022-10-22T00:10:22.731Z,6.62
2022-10-22T00:13:08.193Z,6.64
2022-10-22T00:15:53.615Z,6.68
2022-10-22T00:18:39.767Z,6.69
2022-10-22T00:21:25.843Z,6.71
2022-10-22T00:24:11.144Z,6.74
2022-10-22T00:26:56.629Z,6.75
2022-10-22T00:29:42.221Z,6.74
2022-10-22T00:32:27.450Z,6.75
2022-10-22T00:35:12.733Z,6.75
2022-10-22T00:37:58.133Z,6.74
2022-10-22T00:40:43.947Z,6.77
2022-10-22T00:43:29.156Z,6.79
2022-10-22T00:46:14.625Z,6.78
2022-10-22T00:49:04.275Z,6.79
2022-10-22T00:51:49.850Z,6.80
2022-10-22T00:54:35.704Z,6.82
2022-10-22T00:57:21.472Z,6.82
2022-10-22T01:00:07.664Z,6.83
2022-10-22T01:02:55.588Z,6.84
2022-10-22T01:05:43.116Z,6.84
2022-10-22T01:08:47.537Z,6.83
2022-10-22T01:11:51.481Z,6.84
2022-10-22T01:14:45.637Z,6.85
2022-10-22T01:17:45.868Z,6.87
2022-10-22T01:20:57.465Z,6.89
2022-10-22T01:23:45.931Z,6.91
2022-10-22T01:27:00.663Z,6.93
2022-10-22T01:29:57.818Z,6.97
2022-10-22T01:32:53.777Z,7.00
2022-10-22T01:35:44.503Z,7.01
2022-10-22T01:38:30.723Z,7.03
2022-10-22T01:41:16.404Z,7.04
2022-10-22T01:44:01.696Z,7.05
2022-10-22T01:46:51.303Z,7.05
2022-10-22T01:49:43.693Z,7.06
2022-10-22T01:52:38.506Z,7.06
2022-10-22T01:55:51.244Z,7.04
2022-10-22T01:58:42.611Z,7.04
2022-10-22T02:01:48.922Z,7.04
2022-10-22T02:04:49.855Z,7.03
2022-10-22T02:07:42.632Z,7.04
2022-10-22T02:10:30.194Z,7.04
2022-10-22T02:13:24.889Z,7.04
2022-10-22T02:16:14.707Z,7.04
2022-10-22T02:19:07.904Z,7.05
2022-10-22T02:21:54.606Z,7.06
2022-10-22T02:24:40.205Z,7.07
2022-10-22T02:27:48.406Z,7.10
2022-10-22T02:30:38.609Z,7.11
2022-10-22T02:33:31.374Z,7.13
2022-10-22T02:36:18.136Z,7.15
2022-10-22T02:39:04.963Z,7.16
2022-10-22T02:41:50.403Z,7.17
2022-10-22T02:44:35.732Z,7.18
2022-10-22T02:47:21.333Z,7.18
2022-10-22T02:50:09.541Z,7.20
2022-10-22T02:52:55.775Z,7.22
2022-10-22T02:55:41.327Z,7.22
2022-10-22T02:58:26.812Z,7.24
2022-10-22T03:01:15.345Z,7.24
2022-10-22T03:04:01.704Z,7.25
2022-10-22T03:06:48.870Z,7.27
2022-10-22T03:09:34.229Z,7.29
2022-10-22T03:12:19.703Z,7.31
2022-10-22T03:15:05.493Z,7.34
2022-10-22T03:17:51.083Z,7.37
2022-10-22T03:20:36.613Z,7.38
2022-10-22T03:23:21.926Z,7.38
2022-10-22T03:26:08.982Z,7.39
2022-10-22T03:28:54.895Z,7.41
2022-10-22T03:31:40.255Z,7.43
2022-10-22T03:34:25.723Z,7.43
2022-10-22T03:37:11.656Z,7.46
2022-10-22T03:39:57.307Z,7.49
2022-10-22T03:42:43.476Z,7.51
2022-10-22T03:45:28.966Z,7.54
2022-10-22T03:48:14.568Z,7.55
2022-10-22T03:50:59.941Z,7.57
2022-10-22T03:53:45.589Z,7.60
2022-10-22T03:56:30.963Z,7.63
2022-10-22T03:59:16.918Z,7.67
2022-10-22T04:02:02.669Z,7.68
2022-10-22T04:04:47.928Z,7.70
2022-10-22T04:07:33.224Z,7.73
2022-10-22T04:10:19.112Z,7.74
2022-10-22T04:13:04.638Z,7.74
2022-10-22T04:15:52.092Z,7.75
2022-10-22T04:18:38.969Z,7.76
2022-10-22T04:21:25.442Z,7.77
2022-10-22T04:24:10.907Z,7.78
2022-10-22T04:26:56.732Z,7.79
2022-10-22T04:29:42.293Z,7.79
2022-10-22T04:32:28.446Z,7.81
2022-10-22T04:35:14.348Z,7.82
2022-10-22T04:37:59.787Z,7.83
2022-10-22T04:40:45.196Z,7.84
2022-10-22T04:43:30.987Z,7.85
2022-10-22T04:46:18.546Z,7.86
2022-10-22T04:49:04.811Z,7.87
2022-10-22T04:51:50.474Z,7.87
2022-10-22T04:54:36.058Z,7.86
2022-10-22T04:57:21.264Z,7.86
2022-10-22T05:00:07.838Z,7.89
2022-10-22T05:02:53.113Z,7.89
2022-10-22T05:05:38.858Z,7.91
2022-10-22T05:08:24.016Z,7.94
2022-10-22T05:11:12.462Z,7.95
2022-10-22T05:14:00.047Z,7.97
2022-10-22T05:16:48.926Z,7.97
2022-10-22T05:19:34.943Z,7.99
2022-10-22T05:22:20.186Z,8.00
2022-10-22T05:25:06.102Z,8.00
2022-10-22T05:27:51.753Z,8.01
2022-10-22T05:30:38.186Z,8.03
2022-10-22T05:33:24.193Z,8.07
2022-10-22T05:36:13.407Z,8.09
2022-10-22T05:38:59.237Z,8.12
2022-10-22T05:41:44.863Z,8.14
2022-10-22T05:44:30.516Z,8.17
2022-10-22T05:47:16.103Z,8.19
2022-10-22T05:50:01.918Z,8.23
2022-10-22T05:52:47.103Z,8.26
2022-10-22T05:55:37.244Z,8.29
2022-10-22T05:58:22.882Z,8.34
2022-10-22T06:01:13.036Z,8.38
2022-10-22T06:04:00.675Z,8.42
2022-10-22T06:06:53.614Z,8.45
2022-10-22T06:09:39.717Z,8.47
2022-10-22T06:12:26.734Z,8.50
2022-10-22T06:15:13.434Z,8.52
2022-10-22T06:17:59.012Z,8.54
2022-10-22T06:20:45.525Z,8.53
2022-10-22T06:23:31.165Z,8.55
2022-10-22T06:26:17.910Z,8.57
2022-10-22T06:29:04.192Z,8.55
2022-10-22T06:31:49.899Z,8.56
2022-10-22T06:34:35.683Z,8.59
2022-10-22T06:37:21.261Z,8.73
2022-10-22T06:40:07.407Z,9.07
2022-10-22T06:42:53.112Z,9.36
2022-10-22T06:45:39.814Z,9.58
2022-10-22T06:48:25.376Z,9.76
2022-10-22T06:51:12.222Z,9.93
2022-10-22T06:53:58.738Z,10.14
2022-10-22T06:56:44.561Z,10.32
2022-10-22T06:59:29.934Z,10.49
2022-10-22T07:02:15.466Z,10.60
2022-10-22T07:05:00.839Z,10.71
2022-10-22T07:07:46.659Z,10.78
2022-10-22T07:10:32.371Z,10.83
2022-10-22T07:13:18.034Z,10.87
2022-10-22T07:16:05.043Z,10.95
2022-10-22T07:18:50.980Z,11.02
2022-10-22T07:21:36.772Z,11.10
2022-10-22T07:24:22.523Z,11.16
2022-10-22T07:27:10.874Z,11.22
2022-10-22T07:30:01.097Z,11.27
2022-10-22T07:32:46.287Z,11.29
2022-10-22T07:35:32.228Z,11.32
2022-10-22T07:38:17.592Z,11.33
2022-10-22T07:41:03.450Z,11.35
2022-10-22T07:43:49.316Z,11.35
2022-10-22T07:46:35.408Z,11.37
2022-10-22T07:49:20.889Z,11.38
2022-10-22T07:52:07.945Z,11.38
2022-10-22T07:54:53.514Z,11.38
2022-10-22T07:57:39.220Z,11.38
2022-10-22T08:00:25.479Z,11.38
2022-10-22T08:03:12.315Z,11.37
2022-10-22T08:05:58.836Z,11.38
2022-10-22T08:08:46.307Z,11.38
2022-10-22T08:11:33.599Z,11.40
2022-10-22T08:14:19.232Z,11.39
2022-10-22T08:17:04.793Z,11.41
2022-10-22T08:19:50.465Z,11.44
2022-10-22T08:22:36.210Z,11.46
2022-10-22T08:25:21.576Z,11.49
2022-10-22T08:28:07.212Z,11.55
2022-10-22T08:30:52.604Z,11.60
2022-10-22T08:33:39.088Z,11.67
2022-10-22T08:36:24.471Z,11.74
2022-10-22T08:39:10.026Z,11.81
2022-10-22T08:42:29.140Z,11.88
2022-10-22T08:45:35.991Z,11.99
2022-10-22T08:48:38.649Z,12.07
2022-10-22T08:51:33.111Z,12.14
2022-10-22T08:54:24.454Z,12.20
2022-10-22T08:57:19.117Z,12.23
2022-10-22T09:00:07.013Z,12.27
2022-10-22T09:03:17.025Z,12.34
2022-10-22T09:06:08.387Z,12.44
2022-10-22T09:08:56.729Z,12.50
2022-10-22T09:11:46.485Z,12.62
2022-10-22T09:14:32.357Z,12.71
2022-10-22T09:17:29.554Z,12.80
2022-10-22T09:20:28.729Z,12.87
2022-10-22T09:23:24.654Z,12.93
2022-10-22T09:26:15.299Z,12.98
2022-10-22T09:29:01.961Z,13.05
2022-10-22T09:31:47.378Z,13.10
2022-10-22T09:34:33.898Z,13.16
2022-10-22T09:37:25.755Z,13.19
2022-10-22T09:40:15.156Z,13.21
2022-10-22T09:43:01.027Z,13.24
2022-10-22T09:45:48.070Z,13.25
2022-10-22T09:48:37.425Z,13.27
2022-10-22T09:51:44.021Z,13.27
2022-10-22T09:54:32.535Z,13.28
2022-10-22T09:57:22.206Z,13.31
2022-10-22T10:00:10.189Z,13.34
2022-10-22T10:02:59.061Z,13.35
2022-10-22T10:05:48.928Z,13.37
2022-10-22T10:08:34.600Z,13.37
2022-10-22T10:11:28.063Z,13.36
2022-10-22T10:14:26.212Z,13.35
2022-10-22T10:17:27.290Z,13.38
2022-10-22T10:20:27.946Z,13.41
2022-10-22T10:23:37.695Z,13.47
2022-10-22T10:26:58.598Z,13.54
2022-10-22T10:30:06.679Z,13.60
2022-10-22T10:33:21.629Z,13.64
2022-10-22T10:36:28.276Z,13.70
2022-10-22T10:39:33.951Z,13.77
2022-10-22T10:42:55.978Z,13.85
2022-10-22T10:46:07.943Z,13.93
2022-10-22T10:48:59.361Z,14.00
2022-10-22T10:52:06.361Z,14.08
2022-10-22T10:55:09.692Z,14.17
2022-10-22T10:58:01.280Z,14.25
2022-10-22T11:00:56.686Z,14.35
2022-10-22T11:04:06.337Z,14.42
2022-10-22T11:07:10.789Z,14.48
2022-10-22T11:10:27.792Z,14.53
2022-10-22T11:13:16.032Z,14.64
2022-10-22T11:16:46.567Z,14.74
2022-10-22T11:19:50.965Z,14.85
2022-10-22T11:23:18.297Z,14.92
2022-10-22T11:26:11.503Z,14.98
2022-10-22T11:29:00.275Z,15.04
2022-10-22T11:31:46.474Z,15.02
2022-10-22T11:34:50.400Z,15.00
2022-10-22T11:37:39.149Z,15.07
2022-10-22T11:40:38.589Z,15.11
2022-10-22T11:43:28.466Z,15.13
2022-10-22T11:46:17.019Z,15.19
2022-10-22T11:49:19.109Z,15.21
2022-10-22T11:52:25.508Z,15.25
2022-10-22T11:55:48.572Z,15.23
2022-10-22T11:58:50.777Z,15.26
2022-10-22T12:01:43.199Z,15.24
2022-10-22T12:04:42.037Z,15.27
2022-10-22T12:07:49.516Z,15.30
2022-10-22T12:10:49.587Z,15.26
2022-10-22T12:13:52.631Z,15.29
2022-10-22T12:17:01.223Z,15.42
2022-10-22T12:20:11.214Z,15.53
2022-10-22T12:22:58.932Z,15.61
2022-10-22T12:25:44.077Z,15.56
2022-10-22T12:28:29.513Z,15.46
2022-10-22T12:31:16.831Z,15.34
2022-10-22T12:34:02.216Z,15.20
2022-10-22T12:36:49.915Z,15.20
2022-10-22T12:39:35.697Z,15.22
2022-10-22T12:42:23.831Z,15.24
2022-10-22T12:45:09.855Z,15.19
2022-10-22T12:48:14.556Z,15.21
2022-10-22T12:51:02.465Z,15.23
2022-10-22T12:53:51.649Z,15.27
2022-10-22T12:56:38.029Z,15.31
2022-10-22T12:59:35.446Z,15.38
2022-10-22T13:02:27.924Z,15.44
2022-10-22T13:05:39.177Z,15.48
2022-10-22T13:08:28.677Z,15.54
2022-10-22T13:11:14.166Z,15.60
2022-10-22T13:14:04.682Z,15.63
2022-10-22T13:17:05.878Z,15.64
2022-10-22T13:19:54.813Z,15.67
2022-10-22T13:22:42.270Z,15.62
2022-10-22T13:25:34.039Z,15.55
2022-10-22T13:28:21.767Z,15.53
2022-10-22T13:31:17.356Z,15.55
2022-10-22T13:34:09.831Z,15.54
2022-10-22T13:36:57.315Z,15.54
2022-10-22T13:39:42.857Z,15.54
2022-10-22T13:42:28.548Z,15.51
2022-10-22T13:45:15.171Z,15.47
2022-10-22T13:48:00.650Z,15.47
2022-10-22T13:50:45.823Z,15.49
2022-10-22T13:53:31.573Z,15.54
2022-10-22T13:56:18.288Z,15.55
2022-10-22T13:59:03.717Z,15.46
2022-10-22T14:01:49.297Z,15.32
2022-10-22T14:04:37.226Z,15.20
2022-10-22T14:07:22.317Z,15.05
2022-10-22T14:10:33.902Z,14.95
2022-10-22T14:13:20.864Z,14.88
2022-10-22T14:16:19.027Z,14.84
2022-10-22T14:19:07.044Z,14.83
2022-10-22T14:21:52.598Z,14.84
2022-10-22T14:24:38.004Z,14.83
2022-10-22T14:27:23.509Z,14.82
2022-10-22T14:30:09.737Z,14.82
2022-10-22T14:32:54.874Z,14.82
2022-10-22T14:35:40.388Z,14.81
2022-10-22T14:38:26.078Z,14.82
2022-10-22T14:41:23.385Z,14.84
2022-10-22T14:44:14.525Z,14.86
2022-10-22T14:47:00.514Z,14.87
2022-10-22T14:49:45.901Z,14.87
2022-10-22T14:52:31.384Z,14.86
2022-10-22T14:55:18.483Z,14.86
2022-10-22T14:58:04.309Z,14.85
2022-10-22T15:00:50.015Z,14.82
2022-10-22T15:03:36.313Z,14.79
2022-10-22T15:06:22.129Z,14.73
2022-10-22T15:09:07.432Z,14.68
2022-10-22T15:11:53.311Z,14.65
2022-10-22T15:14:38.924Z,14.60
2022-10-22T15:17:24.355Z,14.55
2022-10-22T15:20:09.989Z,14.49
2022-10-22T15:22:56.237Z,14.43
2022-10-22T15:25:43.923Z,14.38
2022-10-22T15:28:29.362Z,14.28
2022-10-22T15:31:15.560Z,14.19
2022-10-22T15:34:01.916Z,14.12
2022-10-22T15:36:47.689Z,14.05
2022-10-22T15:39:33.781Z,14.00
2022-10-22T15:42:19.465Z,13.92
2022-10-22T15:45:05.190Z,13.82
2022-10-22T15:47:50.926Z,13.59
2022-10-22T15:50:39.503Z,13.45
2022-10-22T15:53:25.182Z,13.29
2022-10-22T15:56:12.148Z,13.18
2022-10-22T15:59:00.629Z,13.03
2022-10-22T16:01:46.257Z,12.95
2022-10-22T16:04:31.484Z,12.87
2022-10-22T16:07:19.876Z,12.78
2022-10-22T16:10:08.241Z,12.71
2022-10-22T16:12:54.714Z,12.61
2022-10-22T16:15:40.137Z,12.49
2022-10-22T16:18:25.944Z,12.35
2022-10-22T16:21:15.195Z,12.22
2022-10-22T16:24:06.000Z,12.12
2022-10-22T16:26:53.311Z,11.97
2022-10-22T16:29:39.546Z,11.84
2022-10-22T16:32:25.134Z,11.77
2022-10-22T16:35:10.820Z,11.59
2022-10-22T16:37:56.198Z,11.43
2022-10-22T16:40:43.046Z,11.31
2022-10-22T16:43:29.478Z,11.19
2022-10-22T16:46:17.366Z,11.07
2022-10-22T16:49:02.481Z,10.96
2022-10-22T16:51:48.236Z,10.83
2022-10-22T16:54:33.612Z,10.73
2022-10-22T16:57:19.036Z,10.70
2022-10-22T17:00:05.748Z,10.62
2022-10-22T17:02:53.385Z,10.49
2022-10-22T17:05:38.843Z,10.39
2022-10-22T17:08:24.221Z,10.32
2022-10-22T17:11:12.459Z,10.25
2022-10-22T17:13:58.476Z,10.21
2022-10-22T17:16:44.923Z,10.16
2022-10-22T17:19:30.594Z,10.13
2022-10-22T17:22:18.386Z,10.10
2022-10-22T17:25:30.075Z,10.07
2022-10-22T17:28:15.563Z,10.03
2022-10-22T17:31:32.577Z,9.89
2022-10-22T17:34:18.219Z,9.78
2022-10-22T17:37:03.754Z,9.71
2022-10-22T17:39:49.131Z,9.62
2022-10-22T17:42:34.819Z,9.56
2022-10-22T17:45:20.475Z,9.52
2022-10-22T17:48:06.209Z,9.46
2022-10-22T17:50:53.640Z,9.40
2022-10-22T17:53:43.138Z,9.26
2022-10-22T17:56:32.758Z,9.19
2022-10-22T17:59:19.160Z,9.14
2022-10-22T18:02:04.927Z,9.06
2022-10-22T18:04:52.519Z,8.99
2022-10-22T18:07:38.206Z,8.98
2022-10-22T18:10:24.438Z,9.01
2022-10-22T18:13:09.929Z,9.03
2022-10-22T18:15:56.392Z,9.02
2022-10-22T18:18:44.993Z,9.01
2022-10-22T18:21:30.635Z,9.03
2022-10-22T18:24:16.820Z,8.97
2022-10-22T18:27:02.943Z,8.96
2022-10-22T18:29:51.708Z,8.97
2022-10-22T18:32:37.337Z,8.93
2022-10-22T18:35:22.431Z,8.88
2022-10-22T18:38:09.089Z,8.75
2022-10-22T18:40:54.374Z,8.67
2022-10-22T18:43:39.776Z,8.60
2022-10-22T18:46:26.533Z,8.58
2022-10-22T18:49:18.309Z,8.52
2022-10-22T18:52:04.016Z,8.48
2022-10-22T18:54:49.713Z,8.42
2022-10-22T18:57:35.244Z,8.40
2022-10-22T19:00:20.634Z,8.35
2022-10-22T19:03:06.230Z,8.29
2022-10-22T19:05:54.266Z,8.13
2022-10-22T19:08:42.298Z,7.98
2022-10-22T19:11:28.152Z,7.89
2022-10-22T19:14:14.994Z,7.83
2022-10-22T19:17:00.601Z,7.78
2022-10-22T19:19:46.072Z,7.67
2022-10-22T19:22:32.076Z,7.59
2022-10-22T19:25:17.350Z,7.54
2022-10-22T19:28:02.829Z,7.53
2022-10-22T19:30:48.269Z,7.51
2022-10-22T19:33:35.421Z,7.50
2022-10-22T19:36:24.349Z,7.44
2022-10-22T19:39:09.923Z,7.42
2022-10-22T19:41:58.212Z,7.38
2022-10-22T19:44:43.819Z,7.35
2022-10-22T19:47:29.387Z,7.29
2022-10-22T19:50:14.700Z,7.26
2022-10-22T19:53:01.563Z,7.20
2022-10-22T19:55:47.303Z,7.15
2022-10-22T19:58:33.144Z,7.13
2022-10-22T20:01:20.027Z,7.11
2022-10-22T20:04:05.400Z,7.10
2022-10-22T20:06:51.928Z,7.04
2022-10-22T20:09:37.301Z,7.00
2022-10-22T20:12:23.118Z,6.96
2022-10-22T20:15:09.482Z,6.91
2022-10-22T20:17:55.264Z,6.84
2022-10-22T20:20:40.594Z,6.82
2022-10-22T20:23:25.740Z,6.83
2022-10-22T20:26:12.735Z,6.87
2022-10-22T20:28:58.488Z,6.88
2022-10-22T20:31:43.832Z,6.90
2022-10-22T20:34:29.427Z,6.91
2022-10-22T20:37:14.891Z,6.89
2022-10-22T20:40:00.435Z,6.81
2022-10-22T20:42:47.311Z,6.72
2022-10-22T20:45:32.878Z,6.71
2022-10-22T20:48:18.440Z,6.70
2022-10-22T20:51:05.137Z,6.70
2022-10-22T20:53:50.536Z,6.72
2022-10-22T20:56:39.799Z,6.72
2022-10-22T20:59:32.511Z,6.73
2022-10-22T21:02:18.451Z,6.69
2022-10-22T21:05:04.170Z,6.64
2022-10-22T21:07:49.880Z,6.62
2022-10-22T21:10:36.029Z,6.57
2022-10-22T21:13:21.455Z,6.54
2022-10-22T21:16:11.729Z,6.53
2022-10-22T21:18:57.482Z,6.50
2022-10-22T21:21:42.948Z,6.47
2022-10-22T21:24:28.575Z,6.43
2022-10-22T21:27:13.873Z,6.42
2022-10-22T21:29:59.509Z,6.42
2022-10-22T21:32:44.874Z,6.39
2022-10-22T21:35:32.535Z,6.39
2022-10-22T21:38:18.347Z,6.30
2022-10-22T21:41:10.261Z,6.25
2022-10-22T21:43:56.511Z,6.25
2022-10-22T21:46:41.974Z,6.25
2022-10-22T21:49:27.702Z,6.24
2022-10-22T21:52:13.174Z,6.14
2022-10-22T21:54:58.699Z,6.06
2022-10-22T21:57:44.573Z,5.99
2022-10-22T22:00:30.078Z,5.98
2022-10-22T22:03:15.525Z,6.03
2022-10-22T22:06:02.373Z,6.07
2022-10-22T22:08:48.325Z,6.06
2022-10-22T22:11:34.098Z,6.03
2022-10-22T22:14:19.869Z,6.03
2022-10-22T22:17:05.388Z,5.96
2022-10-22T22:19:50.660Z,5.92
2022-10-22T22:22:36.856Z,5.88
2022-10-22T22:25:22.133Z,5.86
2022-10-22T22:28:07.552Z,5.85
2022-10-22T22:30:53.063Z,5.85
2022-10-22T22:33:38.429Z,5.85
2022-10-22T22:36:24.072Z,5.81
2022-10-22T22:39:13.786Z,5.79
2022-10-22T22:41:59.007Z,5.75
2022-10-22T22:44:44.507Z,5.73
2022-10-22T22:47:30.289Z,5.72
2022-10-22T22:50:15.561Z,5.74
2022-10-22T22:53:01.099Z,5.74
2022-10-22T22:55:46.536Z,5.75
2022-10-22T22:58:32.135Z,5.75
2022-10-22T23:01:26.906Z,5.74
2022-10-22T23:04:16.509Z,5.74
2022-10-22T23:07:02.255Z,5.71
2022-10-22T23:09:47.669Z,5.67
2022-10-22T23:12:33.044Z,5.69
2022-10-22T23:15:18.370Z,5.68
2022-10-22T23:18:04.051Z,5.67
2022-10-22T23:20:50.046Z,5.66
2022-10-22T23:23:35.381Z,5.64
2022-10-22T23:26:24.122Z,5.61
2022-10-22T23:29:19.319Z,5.54
2022-10-22T23:32:08.030Z,5.49
2022-10-22T23:34:54.865Z,5.44
2022-10-22T23:37:40.530Z,5.42
2022-10-22T23:40:26.366Z,5.37
2022-10-22T23:43:11.939Z,5.27
2022-10-22T23:45:57.561Z,5.20
2022-10-22T23:48:43.189Z,5.18
2022-10-22T23:51:28.923Z,5.18
2022-10-22T23:54:15.996Z,5.13
2022-10-22T23:57:01.753Z,5.12
2022-10-22T23:59:47.144Z,5.11
